sensor_id;sensor_type;location;lat;lon;timestamp;pressure;altitude;pressure_sealevel;temperature;humidity
43436;BME280;36399;51.444;-2.018;2023-06-04T00:02:24;101746.75;;;11.00;100.00
43436;BME280;36399;51.444;-2.018;2023-06-04T00:04:50;101758.88;;;10.97;100.00
43436;BME280;36399;51.444;-2.018;2023-06-04T00:07:16;101765.66;;;10.90;100.00
43436;BME280;36399;51.444;-2.018;2023-06-04T00:09:42;101765.34;;;10.81;100.00
43436;BME280;36399;51.444;-2.018;2023-06-04T00:12:09;101767.72;;;10.73;100.00
43436;BME280;36399;51.444;-2.018;2023-06-04T00:14:35;101774.53;;;10.67;100.00
43436;BME280;36399;51.444;-2.018;2023-06-04T00:17:01;101775.16;;;10.60;100.00
43436;BME280;36399;51.444;-2.018;2023-06-04T00:19:27;101772.59;;;10.61;100.00
43436;BME280;36399;51.444;-2.018;2023-06-04T00:21:53;101786.09;;;10.47;100.00
43436;BME280;36399;51.444;-2.018;2023-06-04T00:24:19;101784.97;;;10.40;100.00
43436;BME280;36399;51.444;-2.018;2023-06-04T00:26:45;101794.19;;;10.29;100.00
43436;BME280;36399;51.444;-2.018;2023-06-04T00:29:11;101796.41;;;10.18;100.00
43436;BME280;36399;51.444;-2.018;2023-06-04T00:31:37;101804.47;;;10.23;100.00
43436;BME280;36399;51.444;-2.018;2023-06-04T00:34:03;101810.31;;;10.16;100.00
43436;BME280;36399;51.444;-2.018;2023-06-04T00:36:29;101812.50;;;10.03;100.00
43436;BME280;36399;51.444;-2.018;2023-06-04T00:38:55;101821.03;;;9.98;100.00
43436;BME280;36399;51.444;-2.018;2023-06-04T00:41:21;101821.78;;;9.94;100.00
43436;BME280;36399;51.444;-2.018;2023-06-04T00:43:47;101820.28;;;9.78;100.00
43436;BME280;36399;51.444;-2.018;2023-06-04T00:46:25;101825.84;;;9.63;100.00
43436;BME280;36399;51.444;-2.018;2023-06-04T00:48:52;101831.97;;;9.64;100.00
43436;BME280;36399;51.444;-2.018;2023-06-04T00:51:19;101842.94;;;9.54;100.00
43436;BME280;36399;51.444;-2.018;2023-06-04T00:53:48;101843.31;;;9.40;100.00
43436;BME280;36399;51.444;-2.018;2023-06-04T00:56:14;101855.69;;;9.44;100.00
43436;BME280;36399;51.444;-2.018;2023-06-04T00:58:40;101862.22;;;9.33;100.00
43436;BME280;36399;51.444;-2.018;2023-06-04T01:01:53;101859.94;;;9.20;100.00
43436;BME280;36399;51.444;-2.018;2023-06-04T01:04:03;101868.13;;;9.07;100.00
43436;BME280;36399;51.444;-2.018;2023-06-04T01:06:39;101876.94;;;9.09;100.00
43436;BME280;36399;51.444;-2.018;2023-06-04T01:09:10;101874.28;;;9.07;100.00
43436;BME280;36399;51.444;-2.018;2023-06-04T01:11:39;101882.50;;;8.96;100.00
43436;BME280;36399;51.444;-2.018;2023-06-04T01:14:08;101891.78;;;8.88;100.00
43436;BME280;36399;51.444;-2.018;2023-06-04T01:16:39;101892.59;;;8.87;100.00
43436;BME280;36399;51.444;-2.018;2023-06-04T01:19:22;101896.19;;;8.89;100.00
43436;BME280;36399;51.444;-2.018;2023-06-04T01:21:52;101906.78;;;8.92;100.00
43436;BME280;36399;51.444;-2.018;2023-06-04T01:24:21;101912.84;;;9.11;100.00
43436;BME280;36399;51.444;-2.018;2023-06-04T01:26:48;101908.25;;;9.06;100.00
43436;BME280;36399;51.444;-2.018;2023-06-04T01:29:15;101907.34;;;8.84;100.00
43436;BME280;36399;51.444;-2.018;2023-06-04T01:31:41;101907.63;;;8.71;100.00
43436;BME280;36399;51.444;-2.018;2023-06-04T01:34:08;101908.72;;;8.76;100.00
43436;BME280;36399;51.444;-2.018;2023-06-04T01:36:33;101908.59;;;8.73;100.00
43436;BME280;36399;51.444;-2.018;2023-06-04T01:38:59;101909.28;;;8.89;100.00
43436;BME280;36399;51.444;-2.018;2023-06-04T01:41:26;101908.66;;;8.94;100.00
43436;BME280;36399;51.444;-2.018;2023-06-04T01:43:52;101917.75;;;8.83;100.00
43436;BME280;36399;51.444;-2.018;2023-06-04T01:46:18;101913.91;;;8.75;100.00
43436;BME280;36399;51.444;-2.018;2023-06-04T01:48:44;101923.53;;;8.76;100.00
43436;BME280;36399;51.444;-2.018;2023-06-04T01:51:11;101926.91;;;8.73;100.00
43436;BME280;36399;51.444;-2.018;2023-06-04T01:53:36;101932.03;;;8.70;100.00
43436;BME280;36399;51.444;-2.018;2023-06-04T01:56:02;101933.28;;;8.59;100.00
43436;BME280;36399;51.444;-2.018;2023-06-04T01:58:28;101935.56;;;8.51;100.00
43436;BME280;36399;51.444;-2.018;2023-06-04T02:00:54;101939.00;;;8.50;100.00
43436;BME280;36399;51.444;-2.018;2023-06-04T02:03:21;101939.44;;;8.40;100.00
43436;BME280;36399;51.444;-2.018;2023-06-04T02:05:48;101931.38;;;8.36;100.00
43436;BME280;36399;51.444;-2.018;2023-06-04T02:08:15;101938.88;;;8.30;100.00
43436;BME280;36399;51.444;-2.018;2023-06-04T02:10:47;101939.97;;;8.15;100.00
43436;BME280;36399;51.444;-2.018;2023-06-04T02:13:14;101930.06;;;8.08;100.00
43436;BME280;36399;51.444;-2.018;2023-06-04T02:15:41;101937.47;;;7.99;100.00
43436;BME280;36399;51.444;-2.018;2023-06-04T02:18:15;101929.06;;;7.87;100.00
43436;BME280;36399;51.444;-2.018;2023-06-04T02:20:47;101937.88;;;7.89;100.00
43436;BME280;36399;51.444;-2.018;2023-06-04T02:23:15;101939.25;;;7.81;100.00
43436;BME280;36399;51.444;-2.018;2023-06-04T02:25:42;101945.50;;;7.84;100.00
43436;BME280;36399;51.444;-2.018;2023-06-04T02:28:10;101946.06;;;7.79;100.00
43436;BME280;36399;51.444;-2.018;2023-06-04T02:30:36;101953.34;;;7.67;100.00
43436;BME280;36399;51.444;-2.018;2023-06-04T02:33:02;101950.72;;;7.67;100.00
43436;BME280;36399;51.444;-2.018;2023-06-04T02:35:30;101964.03;;;7.53;100.00
43436;BME280;36399;51.444;-2.018;2023-06-04T02:37:57;101961.94;;;7.46;100.00
43436;BME280;36399;51.444;-2.018;2023-06-04T02:40:27;101960.81;;;7.41;100.00
43436;BME280;36399;51.444;-2.018;2023-06-04T02:42:54;101965.97;;;7.57;100.00
43436;BME280;36399;51.444;-2.018;2023-06-04T02:45:22;101967.16;;;7.64;100.00
43436;BME280;36399;51.444;-2.018;2023-06-04T02:47:48;101972.81;;;7.73;100.00
43436;BME280;36399;51.444;-2.018;2023-06-04T02:50:15;101985.47;;;7.82;100.00
43436;BME280;36399;51.444;-2.018;2023-06-04T02:52:41;101979.25;;;7.80;100.00
43436;BME280;36399;51.444;-2.018;2023-06-04T02:55:08;101985.84;;;7.89;100.00
43436;BME280;36399;51.444;-2.018;2023-06-04T02:57:40;101985.28;;;7.79;100.00
43436;BME280;36399;51.444;-2.018;2023-06-04T03:00:09;101997.47;;;7.96;100.00
43436;BME280;36399;51.444;-2.018;2023-06-04T03:02:40;101999.94;;;8.11;100.00
43436;BME280;36399;51.444;-2.018;2023-06-04T03:05:08;101994.41;;;8.05;100.00
43436;BME280;36399;51.444;-2.018;2023-06-04T03:07:34;101992.69;;;8.05;100.00
43436;BME280;36399;51.444;-2.018;2023-06-04T03:10:00;101998.97;;;8.09;100.00
43436;BME280;36399;51.444;-2.018;2023-06-04T03:12:26;101998.53;;;8.00;100.00
43436;BME280;36399;51.444;-2.018;2023-06-04T03:14:52;101996.66;;;7.97;100.00
43436;BME280;36399;51.444;-2.018;2023-06-04T03:17:18;101998.59;;;8.01;100.00
43436;BME280;36399;51.444;-2.018;2023-06-04T03:19:44;102008.91;;;7.98;100.00
43436;BME280;36399;51.444;-2.018;2023-06-04T03:22:10;101999.28;;;7.97;100.00
43436;BME280;36399;51.444;-2.018;2023-06-04T03:24:38;101995.91;;;8.00;100.00
43436;BME280;36399;51.444;-2.018;2023-06-04T03:27:05;101992.69;;;8.05;100.00
43436;BME280;36399;51.444;-2.018;2023-06-04T03:29:33;101989.09;;;8.03;100.00
43436;BME280;36399;51.444;-2.018;2023-06-04T03:31:59;101997.84;;;8.04;100.00
43436;BME280;36399;51.444;-2.018;2023-06-04T03:34:26;101998.50;;;8.17;100.00
43436;BME280;36399;51.444;-2.018;2023-06-04T03:36:54;102011.63;;;8.19;100.00
43436;BME280;36399;51.444;-2.018;2023-06-04T03:39:20;102011.44;;;8.14;100.00
43436;BME280;36399;51.444;-2.018;2023-06-04T03:41:47;102010.06;;;8.22;100.00
43436;BME280;36399;51.444;-2.018;2023-06-04T03:44:14;102007.16;;;8.16;100.00
43436;BME280;36399;51.444;-2.018;2023-06-04T03:46:41;102006.13;;;8.13;100.00
43436;BME280;36399;51.444;-2.018;2023-06-04T03:49:11;102008.53;;;8.08;100.00
43436;BME280;36399;51.444;-2.018;2023-06-04T03:51:37;102014.34;;;8.03;100.00
43436;BME280;36399;51.444;-2.018;2023-06-04T03:54:04;102007.78;;;7.93;100.00
43436;BME280;36399;51.444;-2.018;2023-06-04T03:56:30;102016.31;;;7.89;100.00
43436;BME280;36399;51.444;-2.018;2023-06-04T03:58:56;102016.03;;;7.83;100.00
43436;BME280;36399;51.444;-2.018;2023-06-04T04:01:23;102019.75;;;7.88;100.00
43436;BME280;36399;51.444;-2.018;2023-06-04T04:03:50;102004.78;;;7.68;100.00
43436;BME280;36399;51.444;-2.018;2023-06-04T04:06:17;102003.00;;;7.67;100.00
43436;BME280;36399;51.444;-2.018;2023-06-04T04:08:43;102002.84;;;7.64;100.00
43436;BME280;36399;51.444;-2.018;2023-06-04T04:11:10;102011.22;;;7.56;100.00
43436;BME280;36399;51.444;-2.018;2023-06-04T04:13:37;102003.28;;;7.55;100.00
43436;BME280;36399;51.444;-2.018;2023-06-04T04:16:03;102009.66;;;7.60;100.00
43436;BME280;36399;51.444;-2.018;2023-06-04T04:18:32;102009.56;;;7.58;100.00
43436;BME280;36399;51.444;-2.018;2023-06-04T04:20:59;102005.25;;;7.59;100.00
43436;BME280;36399;51.444;-2.018;2023-06-04T04:23:25;102005.31;;;7.60;100.00
43436;BME280;36399;51.444;-2.018;2023-06-04T04:25:52;102004.34;;;7.58;100.00
43436;BME280;36399;51.444;-2.018;2023-06-04T04:28:19;102007.78;;;7.57;100.00
43436;BME280;36399;51.444;-2.018;2023-06-04T04:30:46;102011.38;;;7.59;100.00
43436;BME280;36399;51.444;-2.018;2023-06-04T04:33:12;102006.44;;;7.66;100.00
43436;BME280;36399;51.444;-2.018;2023-06-04T04:35:42;102005.38;;;7.62;100.00
43436;BME280;36399;51.444;-2.018;2023-06-04T04:38:08;102014.94;;;7.62;100.00
43436;BME280;36399;51.444;-2.018;2023-06-04T04:40:35;102009.34;;;7.72;100.00
43436;BME280;36399;51.444;-2.018;2023-06-04T04:43:01;102000.59;;;7.71;100.00
43436;BME280;36399;51.444;-2.018;2023-06-04T04:45:27;102007.03;;;7.78;100.00
43436;BME280;36399;51.444;-2.018;2023-06-04T04:47:53;102007.50;;;7.87;100.00
43436;BME280;36399;51.444;-2.018;2023-06-04T04:50:19;102016.31;;;7.89;100.00
43436;BME280;36399;51.444;-2.018;2023-06-04T04:52:45;102014.06;;;7.97;100.00
43436;BME280;36399;51.444;-2.018;2023-06-04T04:55:11;102013.47;;;8.02;100.00
43436;BME280;36399;51.444;-2.018;2023-06-04T04:57:38;102011.97;;;8.07;100.00
43436;BME280;36399;51.444;-2.018;2023-06-04T05:00:04;102017.03;;;8.04;100.00
43436;BME280;36399;51.444;-2.018;2023-06-04T05:02:32;102020.09;;;8.13;100.00
43436;BME280;36399;51.444;-2.018;2023-06-04T05:04:58;102013.28;;;8.17;100.00
43436;BME280;36399;51.444;-2.018;2023-06-04T05:07:24;102011.72;;;8.20;100.00
43436;BME280;36399;51.444;-2.018;2023-06-04T05:09:50;102008.63;;;8.29;100.00
43436;BME280;36399;51.444;-2.018;2023-06-04T05:12:16;102008.06;;;8.35;100.00
43436;BME280;36399;51.444;-2.018;2023-06-04T05:14:43;101997.25;;;8.29;100.00
43436;BME280;36399;51.444;-2.018;2023-06-04T05:17:09;101986.94;;;8.32;100.00
43436;BME280;36399;51.444;-2.018;2023-06-04T05:19:36;102004.09;;;8.43;100.00
43436;BME280;36399;51.444;-2.018;2023-06-04T05:22:03;101998.16;;;8.47;100.00
43436;BME280;36399;51.444;-2.018;2023-06-04T05:24:30;101987.84;;;8.50;100.00
43436;BME280;36399;51.444;-2.018;2023-06-04T05:26:57;101983.38;;;8.47;100.00
43436;BME280;36399;51.444;-2.018;2023-06-04T05:29:23;101985.56;;;8.58;100.00
43436;BME280;36399;51.444;-2.018;2023-06-04T05:31:50;101985.63;;;8.59;100.00
43436;BME280;36399;51.444;-2.018;2023-06-04T05:34:16;101979.44;;;8.57;100.00
43436;BME280;36399;51.444;-2.018;2023-06-04T05:36:42;101978.13;;;8.67;100.00
43436;BME280;36399;51.444;-2.018;2023-06-04T05:39:09;101975.16;;;8.78;100.00
43436;BME280;36399;51.444;-2.018;2023-06-04T05:41:36;101968.00;;;8.74;100.00
43436;BME280;36399;51.444;-2.018;2023-06-04T05:44:02;101963.09;;;8.82;100.00
43436;BME280;36399;51.444;-2.018;2023-06-04T05:46:28;101957.00;;;8.83;100.00
43436;BME280;36399;51.444;-2.018;2023-06-04T05:48:54;101947.25;;;8.79;100.00
43436;BME280;36399;51.444;-2.018;2023-06-04T05:51:20;101936.84;;;8.80;100.00
43436;BME280;36399;51.444;-2.018;2023-06-04T05:53:47;101930.34;;;8.92;100.00
43436;BME280;36399;51.444;-2.018;2023-06-04T05:56:13;101930.50;;;8.95;100.00
43436;BME280;36399;51.444;-2.018;2023-06-04T05:58:39;101921.81;;;8.96;100.00
43436;BME280;36399;51.444;-2.018;2023-06-04T06:01:05;101918.47;;;9.00;100.00
43436;BME280;36399;51.444;-2.018;2023-06-04T06:03:32;101918.28;;;9.16;100.00
43436;BME280;36399;51.444;-2.018;2023-06-04T06:05:58;101908.88;;;9.21;100.00
43436;BME280;36399;51.444;-2.018;2023-06-04T06:08:25;101908.31;;;9.28;100.00
43436;BME280;36399;51.444;-2.018;2023-06-04T06:10:51;101905.81;;;9.31;100.00
43436;BME280;36399;51.444;-2.018;2023-06-04T06:13:17;101901.88;;;9.41;100.00
43436;BME280;36399;51.444;-2.018;2023-06-04T06:15:43;101892.75;;;9.54;100.00
43436;BME280;36399;51.444;-2.018;2023-06-04T06:18:09;101875.38;;;9.56;100.00
43436;BME280;36399;51.444;-2.018;2023-06-04T06:20:35;101873.28;;;9.69;100.00
43436;BME280;36399;51.444;-2.018;2023-06-04T06:23:08;101865.94;;;9.83;100.00
43436;BME280;36399;51.444;-2.018;2023-06-04T06:25:34;101860.16;;;9.92;100.00
43436;BME280;36399;51.444;-2.018;2023-06-04T06:28:00;101842.66;;;9.91;100.00
43436;BME280;36399;51.444;-2.018;2023-06-04T06:30:25;101837.50;;;9.94;100.00
43436;BME280;36399;51.444;-2.018;2023-06-04T06:32:52;101832.66;;;10.04;100.00
43436;BME280;36399;51.444;-2.018;2023-06-04T06:35:19;101819.31;;;9.98;100.00
43436;BME280;36399;51.444;-2.018;2023-06-04T06:37:45;101819.03;;;10.15;100.00
43436;BME280;36399;51.444;-2.018;2023-06-04T06:40:11;101818.50;;;10.23;100.00
43436;BME280;36399;51.444;-2.018;2023-06-04T06:42:37;101810.00;;;10.30;100.00
43436;BME280;36399;51.444;-2.018;2023-06-04T06:45:03;101803.22;;;10.37;100.00
43436;BME280;36399;51.444;-2.018;2023-06-04T06:47:29;101792.84;;;10.40;100.00
43436;BME280;36399;51.444;-2.018;2023-06-04T06:49:55;101794.06;;;10.50;100.00
43436;BME280;36399;51.444;-2.018;2023-06-04T06:52:21;101778.69;;;10.60;100.00
43436;BME280;36399;51.444;-2.018;2023-06-04T06:54:47;101774.38;;;10.62;100.00
43436;BME280;36399;51.444;-2.018;2023-06-04T06:57:13;101767.53;;;10.67;100.00
43436;BME280;36399;51.444;-2.018;2023-06-04T06:59:39;101765.25;;;10.78;100.00
43436;BME280;36399;51.444;-2.018;2023-06-04T07:02:06;101771.69;;;10.88;100.00
43436;BME280;36399;51.444;-2.018;2023-06-04T07:04:32;101771.38;;;11.04;100.00
43436;BME280;36399;51.444;-2.018;2023-06-04T07:06:58;101765.97;;;10.99;100.00
43436;BME280;36399;51.444;-2.018;2023-06-04T07:09:24;101745.19;;;11.07;100.00
43436;BME280;36399;51.444;-2.018;2023-06-04T07:11:50;101752.38;;;11.13;100.00
43436;BME280;36399;51.444;-2.018;2023-06-04T07:14:15;101749.78;;;11.14;100.00
43436;BME280;36399;51.444;-2.018;2023-06-04T07:16:41;101750.63;;;11.42;100.00
43436;BME280;36399;51.444;-2.018;2023-06-04T07:19:07;101731.56;;;11.49;100.00
43436;BME280;36399;51.444;-2.018;2023-06-04T07:21:33;101728.34;;;11.59;100.00
43436;BME280;36399;51.444;-2.018;2023-06-04T07:23:59;101726.25;;;11.77;100.00
43436;BME280;36399;51.444;-2.018;2023-06-04T07:26:25;101708.88;;;11.82;100.00
43436;BME280;36399;51.444;-2.018;2023-06-04T07:28:52;101695.16;;;11.94;100.00
43436;BME280;36399;51.444;-2.018;2023-06-04T07:31:18;101681.03;;;11.90;100.00
43436;BME280;36399;51.444;-2.018;2023-06-04T07:33:44;101691.13;;;12.07;100.00
43436;BME280;36399;51.444;-2.018;2023-06-04T07:36:12;101680.00;;;12.17;100.00
43436;BME280;36399;51.444;-2.018;2023-06-04T07:38:38;101665.44;;;12.31;100.00
43436;BME280;36399;51.444;-2.018;2023-06-04T07:41:04;101657.63;;;12.36;100.00
43436;BME280;36399;51.444;-2.018;2023-06-04T07:43:32;101631.50;;;12.43;100.00
43436;BME280;36399;51.444;-2.018;2023-06-04T07:45:58;101630.03;;;12.54;100.00
43436;BME280;36399;51.444;-2.018;2023-06-04T07:48:24;101618.00;;;12.66;100.00
43436;BME280;36399;51.444;-2.018;2023-06-04T07:51:00;101617.41;;;12.79;100.00
43436;BME280;36399;51.444;-2.018;2023-06-04T07:53:27;101626.50;;;12.93;100.00
43436;BME280;36399;51.444;-2.018;2023-06-04T07:55:53;101613.16;;;13.24;100.00
43436;BME280;36399;51.444;-2.018;2023-06-04T07:58:19;101603.53;;;13.26;100.00
43436;BME280;36399;51.444;-2.018;2023-06-04T08:00:45;101597.69;;;13.43;100.00
43436;BME280;36399;51.444;-2.018;2023-06-04T08:03:11;101586.28;;;13.44;100.00
43436;BME280;36399;51.444;-2.018;2023-06-04T08:05:37;101580.06;;;13.42;100.00
43436;BME280;36399;51.444;-2.018;2023-06-04T08:08:03;101568.59;;;13.38;100.00
43436;BME280;36399;51.444;-2.018;2023-06-04T08:10:30;101579.31;;;13.47;100.00
43436;BME280;36399;51.444;-2.018;2023-06-04T08:12:56;101571.47;;;13.52;100.00
43436;BME280;36399;51.444;-2.018;2023-06-04T08:15:22;101568.38;;;13.74;100.00
43436;BME280;36399;51.444;-2.018;2023-06-04T08:17:49;101575.63;;;13.86;100.00
43436;BME280;36399;51.444;-2.018;2023-06-04T08:20:15;101565.28;;;14.00;100.00
43436;BME280;36399;51.444;-2.018;2023-06-04T08:22:41;101553.31;;;14.20;100.00
43436;BME280;36399;51.444;-2.018;2023-06-04T08:25:07;101550.00;;;14.35;100.00
43436;BME280;36399;51.444;-2.018;2023-06-04T08:27:34;101533.28;;;14.36;100.00
43436;BME280;36399;51.444;-2.018;2023-06-04T08:30:01;101535.31;;;14.52;100.00
43436;BME280;36399;51.444;-2.018;2023-06-04T08:32:27;101529.09;;;14.48;100.00
43436;BME280;36399;51.444;-2.018;2023-06-04T08:34:54;101521.91;;;14.41;100.00
43436;BME280;36399;51.444;-2.018;2023-06-04T08:37:20;101507.09;;;14.51;100.00
43436;BME280;36399;51.444;-2.018;2023-06-04T08:39:46;101504.66;;;14.65;100.00
43436;BME280;36399;51.444;-2.018;2023-06-04T08:42:22;101507.47;;;14.77;100.00
43436;BME280;36399;51.444;-2.018;2023-06-04T08:44:52;101510.31;;;14.95;100.00
43436;BME280;36399;51.444;-2.018;2023-06-04T08:47:22;101496.09;;;14.84;100.00
43436;BME280;36399;51.444;-2.018;2023-06-04T08:49:50;101499.72;;;14.92;100.00
43436;BME280;36399;51.444;-2.018;2023-06-04T08:52:19;101496.41;;;15.11;100.00
43436;BME280;36399;51.444;-2.018;2023-06-04T08:54:50;101491.91;;;15.04;100.00
43436;BME280;36399;51.444;-2.018;2023-06-04T08:57:18;101493.78;;;15.13;100.00
43436;BME280;36399;51.444;-2.018;2023-06-04T08:59:46;101490.34;;;15.20;100.00
43436;BME280;36399;51.444;-2.018;2023-06-04T09:02:15;101486.91;;;15.29;100.00
43436;BME280;36399;51.444;-2.018;2023-06-04T09:04:43;101496.75;;;15.45;100.00
43436;BME280;36399;51.444;-2.018;2023-06-04T09:07:11;101483.50;;;15.42;100.00
43436;BME280;36399;51.444;-2.018;2023-06-04T09:09:39;101487.03;;;15.44;100.00
43436;BME280;36399;51.444;-2.018;2023-06-04T09:12:09;101489.75;;;15.53;100.00
43436;BME280;36399;51.444;-2.018;2023-06-04T09:14:36;101487.19;;;15.58;100.00
43436;BME280;36399;51.444;-2.018;2023-06-04T09:17:02;101485.59;;;15.76;100.00
43436;BME280;36399;51.444;-2.018;2023-06-04T09:19:28;101482.91;;;15.70;100.00
43436;BME280;36399;51.444;-2.018;2023-06-04T09:21:56;101486.59;;;15.91;100.00
43436;BME280;36399;51.444;-2.018;2023-06-04T09:24:24;101477.97;;;16.18;100.00
43436;BME280;36399;51.444;-2.018;2023-06-04T09:26:51;101480.75;;;16.48;100.00
43436;BME280;36399;51.444;-2.018;2023-06-04T09:29:18;101471.91;;;16.40;100.00
43436;BME280;36399;51.444;-2.018;2023-06-04T09:31:45;101481.72;;;16.64;100.00
43436;BME280;36399;51.444;-2.018;2023-06-04T09:34:12;101476.53;;;16.76;100.00
43436;BME280;36399;51.444;-2.018;2023-06-04T09:36:38;101483.66;;;16.95;100.00
43436;BME280;36399;51.444;-2.018;2023-06-04T09:39:17;101469.50;;;17.02;100.00
43436;BME280;36399;51.444;-2.018;2023-06-04T09:41:44;101474.81;;;17.06;100.00
43436;BME280;36399;51.444;-2.018;2023-06-04T09:44:10;101472.22;;;17.19;100.00
43436;BME280;36399;51.444;-2.018;2023-06-04T09:46:37;101470.41;;;17.14;100.00
43436;BME280;36399;51.444;-2.018;2023-06-04T09:49:04;101469.59;;;17.63;100.00
43436;BME280;36399;51.444;-2.018;2023-06-04T09:51:31;101451.88;;;18.11;100.00
43436;BME280;36399;51.444;-2.018;2023-06-04T09:53:59;101458.72;;;18.88;100.00
43436;BME280;36399;51.444;-2.018;2023-06-04T09:56:26;101450.50;;;20.28;100.00
43436;BME280;36399;51.444;-2.018;2023-06-04T09:58:58;101452.66;;;20.72;98.71
43436;BME280;36399;51.444;-2.018;2023-06-04T10:01:27;101448.72;;;22.11;84.13
43436;BME280;36399;51.444;-2.018;2023-06-04T10:03:54;101460.72;;;22.81;73.04
43436;BME280;36399;51.444;-2.018;2023-06-04T10:06:22;101466.41;;;22.64;72.10
43436;BME280;36399;51.444;-2.018;2023-06-04T10:08:49;101448.13;;;23.62;60.29
43436;BME280;36399;51.444;-2.018;2023-06-04T10:11:25;101459.09;;;23.87;62.12
43436;BME280;36399;51.444;-2.018;2023-06-04T10:13:55;101449.94;;;23.23;59.50
43436;BME280;36399;51.444;-2.018;2023-06-04T10:16:25;101453.97;;;24.12;60.19
43436;BME280;36399;51.444;-2.018;2023-06-04T10:18:52;101451.03;;;24.21;59.38
43436;BME280;36399;51.444;-2.018;2023-06-04T10:21:20;101459.72;;;23.25;62.24
43436;BME280;36399;51.444;-2.018;2023-06-04T10:23:47;101458.38;;;23.80;62.47
43436;BME280;36399;51.444;-2.018;2023-06-04T10:26:14;101468.50;;;23.30;60.46
43436;BME280;36399;51.444;-2.018;2023-06-04T10:28:42;101456.00;;;22.49;61.47
43436;BME280;36399;51.444;-2.018;2023-06-04T10:31:11;101459.94;;;23.89;64.92
43436;BME280;36399;51.444;-2.018;2023-06-04T10:33:38;101464.94;;;24.99;58.60
43436;BME280;36399;51.444;-2.018;2023-06-04T10:36:18;101468.88;;;23.89;56.77
43436;BME280;36399;51.444;-2.018;2023-06-04T10:38:46;101466.97;;;23.59;58.40
43436;BME280;36399;51.444;-2.018;2023-06-04T10:41:17;101467.59;;;24.04;59.14
43436;BME280;36399;51.444;-2.018;2023-06-04T10:43:45;101454.84;;;24.12;55.15
43436;BME280;36399;51.444;-2.018;2023-06-04T10:46:12;101465.84;;;24.03;58.09
43436;BME280;36399;51.444;-2.018;2023-06-04T10:48:52;101466.06;;;24.28;57.97
43436;BME280;36399;51.444;-2.018;2023-06-04T10:51:29;101455.56;;;25.68;52.36
43436;BME280;36399;51.444;-2.018;2023-06-04T10:54:01;101452.72;;;26.72;49.92
43436;BME280;36399;51.444;-2.018;2023-06-04T10:56:29;101464.94;;;27.06;50.00
43436;BME280;36399;51.444;-2.018;2023-06-04T10:58:58;101461.69;;;25.43;51.19
43436;BME280;36399;51.444;-2.018;2023-06-04T11:01:28;101455.81;;;24.42;54.74
43436;BME280;36399;51.444;-2.018;2023-06-04T11:03:55;101459.91;;;24.57;56.73
43436;BME280;36399;51.444;-2.018;2023-06-04T11:06:22;101461.06;;;24.78;54.03
43436;BME280;36399;51.444;-2.018;2023-06-04T11:08:48;101457.63;;;25.86;52.67
43436;BME280;36399;51.444;-2.018;2023-06-04T11:11:15;101451.72;;;26.75;49.37
43436;BME280;36399;51.444;-2.018;2023-06-04T11:13:44;101447.25;;;26.25;50.26
43436;BME280;36399;51.444;-2.018;2023-06-04T11:16:20;101448.44;;;25.11;52.67
43436;BME280;36399;51.444;-2.018;2023-06-04T11:18:57;101444.31;;;26.08;53.16
43436;BME280;36399;51.444;-2.018;2023-06-04T11:21:24;101445.22;;;26.80;49.49
43436;BME280;36399;51.444;-2.018;2023-06-04T11:24:00;101449.53;;;25.86;49.69
43436;BME280;36399;51.444;-2.018;2023-06-04T11:26:36;101458.44;;;25.34;56.25
43436;BME280;36399;51.444;-2.018;2023-06-04T11:29:08;101448.44;;;25.65;54.11
43436;BME280;36399;51.444;-2.018;2023-06-04T11:31:49;101445.63;;;26.21;52.14
43436;BME280;36399;51.444;-2.018;2023-06-04T11:34:29;101451.78;;;26.73;52.86
43436;BME280;36399;51.444;-2.018;2023-06-04T11:36:55;101454.13;;;26.82;51.23
43436;BME280;36399;51.444;-2.018;2023-06-04T11:39:22;101452.22;;;26.37;47.75
43436;BME280;36399;51.444;-2.018;2023-06-04T11:41:50;101440.81;;;26.78;46.69
43436;BME280;36399;51.444;-2.018;2023-06-04T11:44:19;101435.50;;;27.43;46.95
43436;BME280;36399;51.444;-2.018;2023-06-04T11:46:46;101439.94;;;26.77;47.59
43436;BME280;36399;51.444;-2.018;2023-06-04T11:49:18;101433.94;;;27.59;47.07
43436;BME280;36399;51.444;-2.018;2023-06-04T11:51:46;101437.16;;;28.89;44.45
43436;BME280;36399;51.444;-2.018;2023-06-04T11:54:13;101433.06;;;28.42;45.56
43436;BME280;36399;51.444;-2.018;2023-06-04T11:56:39;101431.56;;;27.74;47.62
43436;BME280;36399;51.444;-2.018;2023-06-04T11:59:05;101424.59;;;27.46;47.74
43436;BME280;36399;51.444;-2.018;2023-06-04T12:01:32;101426.03;;;27.97;47.22
43436;BME280;36399;51.444;-2.018;2023-06-04T12:03:58;101420.13;;;27.45;44.79
43436;BME280;36399;51.444;-2.018;2023-06-04T12:06:24;101428.56;;;25.96;46.80
43436;BME280;36399;51.444;-2.018;2023-06-04T12:08:52;101420.13;;;26.06;46.56
43436;BME280;36399;51.444;-2.018;2023-06-04T12:14:03;101422.09;;;26.26;47.35
43436;BME280;36399;51.444;-2.018;2023-06-04T12:16:35;101405.28;;;25.95;47.85
43436;BME280;36399;51.444;-2.018;2023-06-04T12:19:11;101413.69;;;26.82;47.78
43436;BME280;36399;51.444;-2.018;2023-06-04T12:21:38;101413.59;;;25.62;48.69
43436;BME280;36399;51.444;-2.018;2023-06-04T12:24:11;101409.78;;;25.69;49.38
43436;BME280;36399;51.444;-2.018;2023-06-04T12:26:40;101418.31;;;25.28;49.92
43436;BME280;36399;51.444;-2.018;2023-06-04T12:29:10;101405.41;;;25.92;48.65
43436;BME280;36399;51.444;-2.018;2023-06-04T12:31:39;101409.03;;;25.91;48.17
43436;BME280;36399;51.444;-2.018;2023-06-04T12:34:06;101422.41;;;25.13;52.78
43436;BME280;36399;51.444;-2.018;2023-06-04T12:36:32;101419.78;;;26.40;52.40
43436;BME280;36399;51.444;-2.018;2023-06-04T12:39:03;101414.19;;;26.22;50.64
43436;BME280;36399;51.444;-2.018;2023-06-04T12:41:30;101401.34;;;25.80;51.14
43436;BME280;36399;51.444;-2.018;2023-06-04T12:43:56;101408.03;;;26.18;49.10